createdAt,value
2023-03-29T00:00:53.139Z,15.90
2023-03-29T00:03:44.366Z,15.90
2023-03-29T00:06:33.418Z,15.90
2023-03-29T00:09:22.556Z,15.80
2023-03-29T00:12:12.080Z,15.80
2023-03-29T00:15:02.165Z,15.80
2023-03-29T00:17:51.008Z,15.80
2023-03-29T00:20:40.092Z,15.70
2023-03-29T00:23:29.101Z,15.70
2023-03-29T00:26:17.835Z,15.70
2023-03-29T00:29:06.392Z,15.70
2023-03-29T00:31:56.987Z,15.70
2023-03-29T00:34:46.241Z,15.60
2023-03-29T00:37:35.176Z,15.60
2023-03-29T00:40:23.574Z,15.60
2023-03-29T00:43:13.020Z,15.60
2023-03-29T00:46:01.916Z,15.60
2023-03-29T00:48:54.217Z,15.50
2023-03-29T00:51:44.330Z,15.50
2023-03-29T00:54:34.653Z,15.50
2023-03-29T00:57:27.269Z,15.40
2023-03-29T01:00:22.840Z,15.40
2023-03-29T01:03:24.787Z,15.40
2023-03-29T01:06:17.034Z,15.40
2023-03-29T01:09:10.457Z,15.30
2023-03-29T01:12:02.704Z,15.30
2023-03-29T01:14:55.214Z,15.30
2023-03-29T01:17:50.377Z,15.40
2023-03-29T01:20:51.174Z,15.40
2023-03-29T01:24:06.753Z,15.30
2023-03-29T01:27:02.140Z,15.30
2023-03-29T01:29:54.587Z,15.20
2023-03-29T01:32:48.152Z,15.20
2023-03-29T01:35:40.560Z,15.20
2023-03-29T01:38:33.088Z,15.20
2023-03-29T01:41:22.191Z,15.20
2023-03-29T01:44:15.491Z,15.30
2023-03-29T01:47:13.535Z,15.20
2023-03-29T01:50:11.577Z,15.20
2023-03-29T01:53:05.576Z,15.30
2023-03-29T01:55:57.493Z,15.20
2023-03-29T01:58:50.294Z,15.20
2023-03-29T02:01:43.933Z,15.10
2023-03-29T02:04:35.971Z,15.10
2023-03-29T02:07:30.638Z,15.10
2023-03-29T02:10:21.628Z,15.10
2023-03-29T02:13:11.074Z,15.00
2023-03-29T02:16:03.206Z,15.00
2023-03-29T02:18:54.564Z,15.00
2023-03-29T02:21:52.104Z,15.00
2023-03-29T02:24:43.687Z,14.90
2023-03-29T02:27:33.245Z,14.90
2023-03-29T02:30:22.596Z,14.90
2023-03-29T02:33:15.725Z,14.80
2023-03-29T02:36:10.437Z,14.80
2023-03-29T02:39:04.934Z,14.80
2023-03-29T02:41:55.309Z,14.80
2023-03-29T02:44:46.530Z,14.70
2023-03-29T02:47:40.767Z,14.70
2023-03-29T02:50:33.863Z,14.70
2023-03-29T02:53:25.883Z,14.80
2023-03-29T02:56:16.734Z,14.80
2023-03-29T02:59:06.341Z,14.70
2023-03-29T03:01:55.334Z,14.70
2023-03-29T03:04:45.151Z,14.70
2023-03-29T03:07:34.840Z,14.70
2023-03-29T03:10:23.708Z,14.60
2023-03-29T03:13:13.845Z,14.60
2023-03-29T03:16:03.468Z,14.60
2023-03-29T03:18:53.840Z,14.50
2023-03-29T03:21:42.388Z,14.60
2023-03-29T03:24:32.813Z,14.50
2023-03-29T03:27:22.191Z,14.50
2023-03-29T03:30:13.625Z,14.40
2023-03-29T03:33:03.287Z,14.40
2023-03-29T03:35:52.250Z,14.40
2023-03-29T03:38:41.792Z,14.40
2023-03-29T03:41:31.052Z,14.40
2023-03-29T03:44:19.863Z,14.40
2023-03-29T03:47:09.812Z,14.40
2023-03-29T03:49:58.617Z,14.30
2023-03-29T03:52:47.367Z,14.30
2023-03-29T03:55:36.059Z,14.30
2023-03-29T03:58:24.931Z,14.30
2023-03-29T04:01:13.922Z,14.20
2023-03-29T04:04:04.806Z,14.20
2023-03-29T04:06:53.268Z,14.20
2023-03-29T04:09:42.116Z,14.20
2023-03-29T04:12:30.706Z,14.20
2023-03-29T04:15:20.456Z,14.20
2023-03-29T04:18:09.009Z,14.20
2023-03-29T04:20:59.242Z,14.20
2023-03-29T04:23:48.071Z,14.20
2023-03-29T04:26:36.650Z,14.20
2023-03-29T04:29:25.207Z,14.20
2023-03-29T04:32:13.880Z,14.20
2023-03-29T04:35:02.792Z,14.20
2023-03-29T04:37:54.726Z,14.20
2023-03-29T04:40:44.273Z,14.10
2023-03-29T04:43:32.871Z,14.10
2023-03-29T04:46:22.088Z,14.10
2023-03-29T04:49:11.593Z,14.10
2023-03-29T04:52:00.982Z,14.20
2023-03-29T04:54:51.178Z,14.10
2023-03-29T04:57:39.796Z,14.10
2023-03-29T05:00:28.793Z,14.00
2023-03-29T05:03:17.288Z,14.00
2023-03-29T05:06:07.300Z,14.10
2023-03-29T05:08:55.978Z,14.10
2023-03-29T05:11:46.235Z,14.00
2023-03-29T05:14:34.849Z,14.00
2023-03-29T05:17:23.982Z,13.90
2023-03-29T05:20:13.348Z,14.00
2023-03-29T05:23:02.283Z,13.90
2023-03-29T05:25:51.032Z,13.90
2023-03-29T05:28:41.005Z,14.00
2023-03-29T05:31:30.325Z,13.90
2023-03-29T05:34:18.984Z,14.00
2023-03-29T05:37:07.773Z,14.00
2023-03-29T05:40:05.651Z,13.90
2023-03-29T05:42:55.219Z,14.00
2023-03-29T05:45:45.243Z,14.00
2023-03-29T05:48:33.840Z,14.10
2023-03-29T05:51:24.549Z,14.10
2023-03-29T05:54:13.475Z,14.10
2023-03-29T05:57:02.222Z,14.00
2023-03-29T05:59:50.674Z,14.10
2023-03-29T06:02:42.186Z,14.10
2023-03-29T06:05:30.869Z,14.10
2023-03-29T06:08:19.616Z,14.20
2023-03-29T06:11:11.080Z,14.20
2023-03-29T06:14:00.345Z,14.20
2023-03-29T06:16:48.639Z,14.20
2023-03-29T06:19:38.599Z,14.20
2023-03-29T06:22:27.314Z,14.40
2023-03-29T06:25:17.765Z,14.40
2023-03-29T06:28:07.613Z,14.40
2023-03-29T06:30:56.614Z,14.40
2023-03-29T06:33:45.507Z,14.50
2023-03-29T06:36:35.648Z,14.50
2023-03-29T06:39:26.048Z,14.50
2023-03-29T06:42:21.145Z,14.50
2023-03-29T06:45:10.973Z,14.60
2023-03-29T06:47:59.826Z,14.60
2023-03-29T06:50:49.971Z,14.60
2023-03-29T06:53:39.952Z,14.70
2023-03-29T06:56:30.126Z,14.70
2023-03-29T06:59:19.142Z,14.70
2023-03-29T07:02:07.942Z,14.70
2023-03-29T07:04:56.958Z,14.80
2023-03-29T07:07:57.034Z,14.80
2023-03-29T07:10:49.204Z,14.90
2023-03-29T07:13:38.293Z,14.90
2023-03-29T07:16:27.509Z,15.00
2023-03-29T07:19:16.340Z,15.00
2023-03-29T07:22:05.004Z,15.00
2023-03-29T07:24:53.675Z,15.10
2023-03-29T07:27:44.169Z,15.20
2023-03-29T07:30:33.366Z,15.20
2023-03-29T07:33:22.424Z,15.30
2023-03-29T07:36:11.834Z,15.40
2023-03-29T07:39:02.000Z,15.50
2023-03-29T07:41:50.517Z,15.50
2023-03-29T07:44:41.822Z,15.60
2023-03-29T07:47:30.777Z,15.70
2023-03-29T07:50:19.228Z,16.00
2023-03-29T07:53:07.558Z,16.10
2023-03-29T07:55:56.492Z,16.10
2023-03-29T07:58:45.100Z,16.30
2023-03-29T08:01:35.040Z,16.30
2023-03-29T08:04:24.171Z,16.40
2023-03-29T08:07:14.387Z,16.50
2023-03-29T08:10:04.460Z,16.60
2023-03-29T08:12:53.684Z,16.70
2023-03-29T08:15:46.371Z,16.80
2023-03-29T08:18:36.504Z,17.00
2023-03-29T08:21:25.266Z,17.10
2023-03-29T08:24:14.049Z,17.20
2023-03-29T08:27:02.962Z,17.30
2023-03-29T08:29:51.879Z,17.50
2023-03-29T08:32:40.627Z,17.60
2023-03-29T08:35:31.217Z,17.80
2023-03-29T08:38:21.810Z,18.20
2023-03-29T08:41:27.497Z,18.30
2023-03-29T08:44:30.404Z,18.80
2023-03-29T08:47:24.370Z,19.40
2023-03-29T08:50:15.539Z,20.10
2023-03-29T08:53:09.226Z,20.70
2023-03-29T08:56:01.218Z,21.30
2023-03-29T08:58:52.900Z,21.80
2023-03-29T09:01:41.658Z,22.20
2023-03-29T09:04:34.414Z,22.20
2023-03-29T09:07:24.663Z,22.40
2023-03-29T09:10:19.904Z,22.70
2023-03-29T09:13:30.158Z,23.00
2023-03-29T09:16:27.446Z,23.20
2023-03-29T09:19:26.845Z,23.30
2023-03-29T09:22:22.928Z,23.20
2023-03-29T09:25:21.673Z,23.10
2023-03-29T09:28:19.348Z,23.30
2023-03-29T09:31:15.737Z,23.20
2023-03-29T09:34:14.379Z,23.50
2023-03-29T09:37:08.944Z,23.80
2023-03-29T09:39:57.752Z,23.80
2023-03-29T09:42:50.150Z,24.10
2023-03-29T09:45:39.873Z,24.30
2023-03-29T09:48:32.868Z,24.90
2023-03-29T09:51:27.904Z,24.80
2023-03-29T09:54:17.231Z,24.80
2023-03-29T09:57:06.019Z,24.80
2023-03-29T09:59:56.593Z,24.90
2023-03-29T10:02:52.828Z,25.20
2023-03-29T10:05:41.732Z,25.30
2023-03-29T10:08:32.221Z,25.60
2023-03-29T10:11:24.711Z,25.60
2023-03-29T10:14:17.753Z,25.70
2023-03-29T10:17:15.732Z,25.70
2023-03-29T10:20:07.417Z,25.70
2023-03-29T10:22:59.330Z,25.80
2023-03-29T10:25:48.051Z,25.90
2023-03-29T10:28:39.224Z,26.00
2023-03-29T10:31:31.772Z,26.00
2023-03-29T10:34:26.325Z,26.30
2023-03-29T10:37:19.473Z,26.50
2023-03-29T10:40:17.431Z,26.70
2023-03-29T10:43:16.221Z,26.30
2023-03-29T10:46:10.958Z,26.00
2023-03-29T10:49:02.849Z,25.80
2023-03-29T10:51:54.372Z,25.60
2023-03-29T10:54:43.292Z,25.30
2023-03-29T10:57:42.013Z,25.10
2023-03-29T11:00:35.812Z,24.90
2023-03-29T11:03:41.066Z,24.90
2023-03-29T11:06:36.883Z,24.90
2023-03-29T11:09:39.969Z,24.80
2023-03-29T11:12:32.922Z,24.60
2023-03-29T11:15:37.352Z,24.40
2023-03-29T11:18:48.772Z,24.10
2023-03-29T11:21:42.802Z,23.80
2023-03-29T11:24:49.929Z,23.50
2023-03-29T11:27:46.941Z,23.50
2023-03-29T11:30:44.064Z,23.50
2023-03-29T11:33:42.586Z,23.40
2023-03-29T11:36:37.683Z,23.20
2023-03-29T11:39:37.788Z,23.00
2023-03-29T11:42:32.366Z,22.90
2023-03-29T11:45:27.770Z,22.90
2023-03-29T11:48:21.576Z,23.00
2023-03-29T11:51:14.554Z,23.10
2023-03-29T11:54:07.070Z,23.20
2023-03-29T11:56:58.834Z,23.30
2023-03-29T11:59:55.204Z,23.20
2023-03-29T12:02:48.934Z,23.10
2023-03-29T12:05:43.166Z,23.00
2023-03-29T12:08:36.118Z,23.10
2023-03-29T12:11:31.318Z,23.20
2023-03-29T12:14:27.791Z,23.20
2023-03-29T12:17:22.396Z,23.20
2023-03-29T12:20:19.262Z,23.10
2023-03-29T12:23:09.460Z,23.10
2023-03-29T12:26:05.999Z,23.10
2023-03-29T12:29:12.441Z,23.00
2023-03-29T12:32:16.164Z,22.90
2023-03-29T12:35:22.342Z,22.70
2023-03-29T12:38:18.147Z,22.70
2023-03-29T12:41:16.291Z,22.60
2023-03-29T12:44:06.897Z,22.50
2023-03-29T12:47:01.166Z,22.40
2023-03-29T12:49:56.408Z,22.30
2023-03-29T12:52:46.844Z,22.30
2023-03-29T12:55:49.175Z,22.30
2023-03-29T12:59:06.736Z,22.20
2023-03-29T13:02:03.034Z,22.00
2023-03-29T13:04:54.442Z,21.90
2023-03-29T13:07:48.727Z,21.90
2023-03-29T13:10:40.960Z,21.90
2023-03-29T13:13:32.037Z,22.00
2023-03-29T13:16:23.080Z,22.00
2023-03-29T13:19:24.793Z,22.10
2023-03-29T13:22:27.688Z,22.00
2023-03-29T13:25:32.136Z,21.90
2023-03-29T13:28:30.128Z,21.80
2023-03-29T13:31:35.475Z,21.60
2023-03-29T13:34:40.264Z,21.50
2023-03-29T13:37:38.838Z,21.40
2023-03-29T13:40:45.020Z,21.30
2023-03-29T13:43:37.833Z,21.30
2023-03-29T13:46:38.887Z,21.20
2023-03-29T13:49:30.826Z,21.10
2023-03-29T13:52:27.294Z,21.00
2023-03-29T13:55:21.157Z,20.90
2023-03-29T13:58:13.910Z,20.80
2023-03-29T14:01:10.910Z,20.80
2023-03-29T14:04:01.038Z,20.80
2023-03-29T14:06:53.358Z,20.70
2023-03-29T14:09:46.170Z,20.70
2023-03-29T14:12:41.820Z,20.60
2023-03-29T14:15:43.840Z,20.60
2023-03-29T14:18:37.818Z,20.60
2023-03-29T14:21:26.702Z,20.50
2023-03-29T14:24:22.052Z,20.40
2023-03-29T14:27:14.423Z,20.50
2023-03-29T14:30:03.273Z,20.40
2023-03-29T14:32:53.521Z,20.30
2023-03-29T14:35:42.571Z,20.30
2023-03-29T14:38:32.393Z,20.30
2023-03-29T14:41:24.383Z,20.30
2023-03-29T14:44:15.912Z,20.30
2023-03-29T14:47:04.804Z,20.20
2023-03-29T14:49:57.111Z,20.20
2023-03-29T14:52:47.947Z,20.20
2023-03-29T14:55:38.938Z,20.10
2023-03-29T14:58:30.294Z,20.00
2023-03-29T15:01:20.791Z,20.00
2023-03-29T15:04:11.995Z,19.90
2023-03-29T15:07:02.786Z,19.90
2023-03-29T15:09:51.890Z,19.90
2023-03-29T15:12:43.710Z,19.80
2023-03-29T15:15:34.820Z,19.80
2023-03-29T15:18:29.349Z,19.80
2023-03-29T15:21:22.109Z,19.70
2023-03-29T15:24:23.383Z,19.70
2023-03-29T15:27:16.326Z,19.70
2023-03-29T15:30:13.027Z,19.80
2023-03-29T15:33:10.995Z,19.80
2023-03-29T15:35:59.783Z,19.70
2023-03-29T15:38:51.060Z,19.70
2023-03-29T15:41:41.688Z,19.80
2023-03-29T15:44:33.487Z,19.80
2023-03-29T15:47:22.468Z,19.80
2023-03-29T15:50:12.100Z,19.90
2023-03-29T15:53:14.259Z,20.00
2023-03-29T15:56:07.427Z,20.00
2023-03-29T15:58:57.699Z,20.10
2023-03-29T16:01:47.075Z,20.20
2023-03-29T16:04:35.998Z,20.20
2023-03-29T16:07:24.737Z,20.30
2023-03-29T16:10:13.403Z,20.30
2023-03-29T16:13:02.095Z,20.30
2023-03-29T16:15:52.046Z,20.30
2023-03-29T16:18:40.986Z,20.30
2023-03-29T16:21:29.669Z,20.30
2023-03-29T16:24:20.089Z,20.30
2023-03-29T16:27:08.788Z,20.30
2023-03-29T16:29:58.983Z,20.20
2023-03-29T16:32:49.268Z,20.00
2023-03-29T16:35:40.050Z,19.90
2023-03-29T16:38:29.404Z,19.90
2023-03-29T16:41:18.992Z,19.80
2023-03-29T16:44:07.927Z,19.70
2023-03-29T16:46:58.221Z,19.50
2023-03-29T16:49:48.978Z,19.40
2023-03-29T16:52:38.703Z,19.30
2023-03-29T16:55:28.841Z,19.30
2023-03-29T16:58:17.713Z,19.30
2023-03-29T17:01:11.378Z,19.20
2023-03-29T17:04:00.535Z,19.10
2023-03-29T17:06:51.899Z,19.10
2023-03-29T17:09:41.193Z,19.10
2023-03-29T17:12:29.975Z,19.00
2023-03-29T17:15:19.093Z,19.00
2023-03-29T17:18:08.068Z,18.90
2023-03-29T17:20:58.947Z,18.90
2023-03-29T17:23:49.514Z,18.90
2023-03-29T17:26:39.337Z,18.90
2023-03-29T17:29:28.118Z,18.80
2023-03-29T17:32:17.182Z,18.80
2023-03-29T17:35:06.391Z,18.70
2023-03-29T17:37:56.295Z,18.70
2023-03-29T17:40:52.813Z,18.70
2023-03-29T17:43:42.274Z,18.60
2023-03-29T17:46:31.272Z,18.60
2023-03-29T17:49:20.154Z,18.50
2023-03-29T17:52:09.282Z,18.50
2023-03-29T17:54:57.680Z,18.50
2023-03-29T17:57:49.180Z,18.50
2023-03-29T18:00:38.281Z,18.50
2023-03-29T18:03:27.369Z,18.50
2023-03-29T18:06:19.908Z,18.50
2023-03-29T18:09:10.480Z,18.40
2023-03-29T18:12:01.141Z,18.40
2023-03-29T18:14:51.381Z,18.40
2023-03-29T18:17:40.235Z,18.40
2023-03-29T18:20:29.006Z,18.40
2023-03-29T18:23:17.710Z,18.40
2023-03-29T18:26:07.603Z,18.40
2023-03-29T18:28:56.317Z,18.30
2023-03-29T18:31:47.173Z,18.30
2023-03-29T18:34:36.321Z,18.30
2023-03-29T18:37:25.206Z,18.30
2023-03-29T18:40:15.769Z,18.30
2023-03-29T18:43:04.410Z,18.30
2023-03-29T18:45:53.384Z,18.30
2023-03-29T18:48:43.594Z,18.30
2023-03-29T18:51:33.364Z,18.30
2023-03-29T18:54:22.184Z,18.30
2023-03-29T18:57:11.128Z,18.30
2023-03-29T19:00:00.226Z,18.30
2023-03-29T19:02:52.137Z,18.30
2023-03-29T19:05:42.106Z,18.30
2023-03-29T19:08:32.483Z,18.30
2023-03-29T19:11:21.420Z,18.30
2023-03-29T19:14:10.199Z,18.30
2023-03-29T19:16:58.670Z,18.30
2023-03-29T19:19:47.195Z,18.30
2023-03-29T19:22:37.418Z,18.30
2023-03-29T19:25:26.233Z,18.20
2023-03-29T19:28:14.865Z,18.20
2023-03-29T19:31:04.725Z,18.20
2023-03-29T19:33:53.566Z,18.20
2023-03-29T19:36:42.024Z,18.30
2023-03-29T19:39:32.850Z,18.30
2023-03-29T19:42:21.648Z,18.20
2023-03-29T19:45:11.434Z,18.20
2023-03-29T19:48:03.365Z,18.20
2023-03-29T19:50:52.434Z,18.20
2023-03-29T19:53:41.847Z,18.20
2023-03-29T19:56:33.219Z,18.20
2023-03-29T19:59:22.962Z,18.20
2023-03-29T20:02:12.364Z,18.20
2023-03-29T20:05:01.863Z,18.20
2023-03-29T20:07:50.741Z,18.10
2023-03-29T20:10:39.576Z,18.10
2023-03-29T20:13:38.095Z,18.10
2023-03-29T20:16:27.360Z,18.10
2023-03-29T20:19:17.946Z,18.20
2023-03-29T20:22:08.174Z,18.20
2023-03-29T20:24:57.555Z,18.10
2023-03-29T20:27:48.773Z,18.10
2023-03-29T20:30:39.228Z,18.10
2023-03-29T20:33:27.922Z,18.10
2023-03-29T20:36:23.156Z,18.00
2023-03-29T20:39:12.246Z,18.00
2023-03-29T20:42:01.119Z,18.00
2023-03-29T20:44:50.714Z,18.00
2023-03-29T20:47:42.668Z,18.00
2023-03-29T20:50:31.614Z,18.00
2023-03-29T20:53:21.608Z,18.00
2023-03-29T20:56:10.599Z,18.00
2023-03-29T20:58:59.354Z,18.00
2023-03-29T21:01:50.507Z,18.00
2023-03-29T21:04:41.052Z,18.00
2023-03-29T21:07:30.793Z,18.10
2023-03-29T21:10:19.736Z,18.00
2023-03-29T21:13:08.928Z,18.00
2023-03-29T21:15:57.678Z,18.00
2023-03-29T21:18:47.422Z,18.00
2023-03-29T21:21:37.982Z,18.00
2023-03-29T21:24:26.784Z,17.90
2023-03-29T21:27:15.461Z,17.90
2023-03-29T21:30:04.324Z,17.90
2023-03-29T21:32:53.265Z,17.90
2023-03-29T21:35:41.950Z,18.00
2023-03-29T21:38:32.104Z,18.00
2023-03-29T21:41:22.115Z,17.90
2023-03-29T21:44:11.081Z,17.90
2023-03-29T21:47:00.143Z,17.90
2023-03-29T21:49:48.950Z,17.90
2023-03-29T21:52:37.993Z,17.90
2023-03-29T21:55:28.154Z,17.90
2023-03-29T21:58:17.169Z,17.90
2023-03-29T22:01:07.495Z,17.90
2023-03-29T22:03:56.578Z,18.00
2023-03-29T22:06:45.123Z,17.90
2023-03-29T22:09:35.044Z,17.90
2023-03-29T22:12:26.181Z,17.90
2023-03-29T22:15:15.272Z,17.90
2023-03-29T22:18:05.328Z,17.90
2023-03-29T22:20:54.154Z,18.00
2023-03-29T22:23:43.971Z,18.00
2023-03-29T22:26:33.951Z,17.90
2023-03-29T22:29:24.027Z,17.90
2023-03-29T22:32:12.666Z,18.00
2023-03-29T22:35:01.694Z,17.90
2023-03-29T22:37:50.337Z,17.90
2023-03-29T22:40:41.639Z,17.90
2023-03-29T22:43:30.523Z,17.80
2023-03-29T22:46:20.915Z,17.80
2023-03-29T22:49:09.628Z,17.90
2023-03-29T22:51:58.242Z,17.80
2023-03-29T22:54:46.880Z,17.80
2023-03-29T22:57:35.501Z,17.80
2023-03-29T23:00:24.331Z,17.80
2023-03-29T23:03:14.644Z,17.80
2023-03-29T23:06:03.423Z,17.80
2023-03-29T23:08:51.917Z,17.80
2023-03-29T23:11:40.586Z,17.80
2023-03-29T23:14:29.242Z,17.80
2023-03-29T23:17:19.383Z,17.80
2023-03-29T23:20:11.460Z,17.80
2023-03-29T23:23:00.161Z,17.80
2023-03-29T23:25:49.719Z,17.80
2023-03-29T23:28:38.651Z,17.80
2023-03-29T23:31:27.614Z,17.80
2023-03-29T23:34:16.206Z,17.80
2023-03-29T23:37:06.211Z,17.70
2023-03-29T23:39:54.766Z,17.70
2023-03-29T23:42:45.008Z,17.80
2023-03-29T23:45:33.537Z,17.70
2023-03-29T23:48:23.891Z,17.80
2023-03-29T23:51:12.581Z,17.80
2023-03-29T23:54:03.496Z,17.80
2023-03-29T23:56:52.447Z,17.80
2023-03-29T23:59:41.080Z,17.80
